Route Details

Aircraft Information
Group: Military Charter
Types: B744, MD11, B752
Route Data
Distance: 388nm
Duration: 0h 00m
Origin METAR: KILN 051354Z AUTO 20010G16KT 9SM CLR 16/12 A2997 RMK AO2 LTG DSNT SE SLP149 T01610122
Dest. METAR: KDOV 051409Z 04013KT 1 3/8SM -RA BR OVC005 09/08 A3003 RMK AO2A CIG 003 RWY14 CIG 003 RWY19 SLP173
Freight Data
(for Mar 5, 2024)
Load Factor:
0%
Manifested Cargo: 0lbs
Financial History
Total Freight: 0lbs
Average Load: 0lbs/flt
Fuel Used: 8,165lbs
Avg. Fuel Used: 0lbs/flt
Fuel Expense: $4,409
Avg. Fuel Expense: $0
Avg. Fuel Cost: $0/lbs
Total Gross Income: $0
Pilot Pay: $269
Total Expenses: $444
Total Revenue: $-5,335
Average Revenue: $0

Capitol Logistics 911




KILN
Wilmington Air Park
Wilmington, Ohio
KDOV
Dover Air Force Base
Dover, Delaware

Activity Log

Date Flight Route Aircraft Duration
02/20/2023 CPX911 DCT HVQ DCT TUKEY DCT BIGAL DCT MAULS ARLFT2 B752 1h 10m